Time;durP1;ratioP1;P1;durP2;ratioP2;P2;SDS_P1;SDS_P2;PMS_P1;PMS_P2;Temp;Humidity;BMP_temperature;BMP_pressure;BME280_temperature;BME280_humidity;BME280_pressure;Samples;Min_cycle;Max_cycle;Signal;HPM_P1;HPM_P2
2023/01/18 00:00:16;;;;;;;8.20;3.30;;;0.60;99.90;;;;;;5112755;28;20293;-78
2023/01/18 00:02:45;;;;;;;14.75;3.72;;;0.50;99.90;;;;;;5113428;28;20051;-78
2023/01/18 00:05:12;;;;;;;8.85;3.60;;;0.60;99.90;;;;;;5113717;28;20043;-78
2023/01/18 00:07:38;;;;;;;11.75;3.85;;;0.50;99.90;;;;;;5112552;28;20562;-84
2023/01/18 00:10:04;;;;;;;8.23;3.90;;;0.50;99.90;;;;;;5113792;28;20071;-78
2023/01/18 00:12:32;;;;;;;8.35;4.07;;;0.50;99.90;;;;;;5113365;28;20040;-77
2023/01/18 00:14:58;;;;;;;7.13;3.65;;;0.50;99.90;;;;;;5113130;28;20047;-78
2023/01/18 00:17:23;;;;;;;8.53;3.80;;;0.50;99.90;;;;;;5113560;28;20112;-77
2023/01/18 00:19:49;;;;;;;7.33;3.60;;;0.40;99.90;;;;;;5113206;28;20047;-78
2023/01/18 00:22:15;;;;;;;8.07;3.47;;;0.40;99.90;;;;;;5113456;28;20059;-77
2023/01/18 00:24:40;;;;;;;8.20;3.00;;;0.40;99.90;;;;;;5113306;28;20048;-78
2023/01/18 00:27:08;;;;;;;9.53;3.50;;;0.40;99.90;;;;;;5113438;28;20484;-77
2023/01/18 00:29:34;;;;;;;10.93;3.47;;;0.50;99.90;;;;;;5113904;28;20075;-77
2023/01/18 00:32:00;;;;;;;10.20;3.40;;;0.50;99.90;;;;;;5117073;28;20086;-77
2023/01/18 00:34:26;;;;;;;6.93;3.37;;;0.40;99.90;;;;;;5117611;28;20086;-77
2023/01/18 00:36:52;;;;;;;6.43;3.30;;;0.50;99.90;;;;;;5116021;28;20572;-77
2023/01/18 00:39:17;;;;;;;7.17;2.97;;;0.40;99.90;;;;;;5117698;28;20126;-77
2023/01/18 00:43:37;;;;;;;9.33;3.37;;;0.50;99.90;;;;;;5117206;27;20039;-78
2023/01/18 00:44:29;;;;;;;7.05;2.97;;;0.40;99.90;;;;;;5117362;28;20119;-77
2023/01/18 00:46:54;;;;;;;7.70;2.90;;;0.40;99.90;;;;;;5116143;28;20079;-77
2023/01/18 00:49:21;;;;;;;8.93;3.23;;;0.40;99.90;;;;;;5116594;28;20368;-77
2023/01/18 00:51:47;;;;;;;8.57;2.78;;;0.40;99.90;;;;;;5116973;28;20395;-78
2023/01/18 00:54:12;;;;;;;6.67;3.20;;;0.50;99.90;;;;;;5117239;28;20055;-77
2023/01/18 00:56:38;;;;;;;6.53;2.97;;;0.40;99.90;;;;;;5117263;28;20051;-77
2023/01/18 00:59:04;;;;;;;10.27;3.53;;;0.40;99.90;;;;;;5115909;28;20048;-77
2023/01/18 01:01:29;;;;;;;8.07;3.10;;;0.30;99.90;;;;;;5117111;28;20048;-77
2023/01/18 01:06:45;;;;;;;8.93;3.33;;;0.30;99.90;;;;;;5116695;28;20487;-77
2023/01/18 01:09:23;;;;;;;8.02;3.33;;;0.30;99.90;;;;;;5116953;28;20524;-77
2023/01/18 01:28:23;;;;;;;8.73;3.05;;;0.40;99.90;;;;;;5116438;27;20052;-78
2023/01/18 01:30:48;;;;;;;7.60;3.25;;;0.40;99.90;;;;;;5115904;28;20390;-78
2023/01/18 01:33:16;;;;;;;7.20;3.00;;;0.30;99.90;;;;;;5116741;28;20043;-78
2023/01/18 01:35:43;;;;;;;8.38;3.55;;;0.40;99.90;;;;;;5115218;28;20119;-78
2023/01/18 01:38:08;;;;;;;8.20;3.08;;;0.40;99.90;;;;;;5116045;27;20134;-78
2023/01/18 01:40:34;;;;;;;8.80;3.00;;;0.40;99.90;;;;;;5114496;28;20127;-78
2023/01/18 01:43:00;;;;;;;6.97;3.20;;;0.40;99.90;;;;;;5116017;28;20079;-78
2023/01/18 01:45:28;;;;;;;10.00;3.30;;;0.40;99.90;;;;;;5116387;28;20543;-78
2023/01/18 01:47:56;;;;;;;8.68;2.95;;;0.40;99.90;;;;;;5115764;28;20051;-78
2023/01/18 01:50:35;;;;;;;6.25;3.03;;;0.40;99.90;;;;;;5115834;28;20499;-78
2023/01/18 01:53:02;;;;;;;6.53;2.88;;;0.40;99.90;;;;;;5115750;28;20047;-78
2023/01/18 01:55:35;;;;;;;6.90;3.00;;;0.30;99.90;;;;;;5116064;28;20047;-78
2023/01/18 01:58:06;;;;;;;9.30;3.20;;;0.40;99.90;;;;;;5115695;28;20088;-78
2023/01/18 02:00:32;;;;;;;7.70;3.13;;;0.50;99.90;;;;;;5116178;28;20043;-78
2023/01/18 02:03:07;;;;;;;10.20;3.08;;;0.40;99.90;;;;;;5114565;28;20054;-78
2023/01/18 02:06:01;;;;;;;8.95;2.90;;;0.40;99.90;;;;;;5114948;28;20051;-78
2023/01/18 02:08:27;;;;;;;6.93;2.90;;;0.40;99.90;;;;;;5114315;28;20098;-78
2023/01/18 02:10:53;;;;;;;6.85;2.97;;;0.40;99.90;;;;;;5115369;28;20044;-80
2023/01/18 02:13:21;;;;;;;8.27;2.67;;;0.50;99.90;;;;;;5114798;28;20055;-78
2023/01/18 02:16:16;;;;;;;8.15;2.65;;;0.50;99.90;;;;;;5115290;28;20496;-77
2023/01/18 02:18:48;;;;;;;10.40;2.60;;;0.50;99.90;;;;;;5115525;28;20047;-77
2023/01/18 02:21:22;;;;;;;8.27;2.75;;;0.40;99.90;;;;;;5114155;28;20062;-77
2023/01/18 02:24:30;;;;;;;8.52;2.40;;;0.40;99.90;;;;;;5115405;28;20464;-77
2023/01/18 02:26:58;;;;;;;7.03;2.30;;;0.50;99.90;;;;;;5103918;28;20077;-78
2023/01/18 02:29:54;;;;;;;9.23;2.78;;;0.50;99.90;;;;;;5115388;27;20043;-77
2023/01/18 02:32:28;;;;;;;7.43;2.17;;;0.50;99.90;;;;;;5115207;28;20040;-77
2023/01/18 02:35:12;;;;;;;6.93;2.38;;;0.50;99.90;;;;;;5115040;28;20436;-77
2023/01/18 02:37:49;;;;;;;8.38;2.80;;;0.50;99.90;;;;;;5115238;28;20047;-77
2023/01/18 02:40:26;;;;;;;7.53;2.65;;;0.50;99.90;;;;;;5114903;28;20044;-77
2023/01/18 02:48:34;;;;;;;5.13;2.20;;;0.50;99.90;;;;;;5115082;28;20497;-77
2023/01/18 02:51:00;;;;;;;7.20;2.30;;;0.50;99.90;;;;;;5113539;28;20053;-77
2023/01/18 02:53:26;;;;;;;9.90;2.47;;;0.50;99.90;;;;;;5114800;28;20070;-77
2023/01/18 02:55:54;;;;;;;6.13;2.53;;;0.50;99.90;;;;;;5114882;28;20081;-77
2023/01/18 02:58:28;;;;;;;6.00;2.08;;;0.50;99.90;;;;;;5114186;28;20573;-77
2023/01/18 03:01:27;;;;;;;6.97;2.40;;;0.50;99.90;;;;;;5114978;28;20079;-77
2023/01/18 03:04:02;;;;;;;5.32;1.98;;;0.50;99.90;;;;;;5114572;28;20051;-77
2023/01/18 03:06:28;;;;;;;7.18;2.30;;;0.40;99.90;;;;;;5096830;28;20480;-77
2023/01/18 03:08:57;;;;;;;6.30;2.20;;;0.50;99.90;;;;;;5114650;28;20134;-77
2023/01/18 03:11:31;;;;;;;5.65;2.25;;;0.40;99.90;;;;;;5113141;28;20055;-77
2023/01/18 03:14:12;;;;;;;7.55;2.38;;;0.40;99.90;;;;;;5114651;28;20062;-77
2023/01/18 03:16:57;;;;;;;6.55;2.53;;;0.50;99.90;;;;;;5114411;28;20053;-78
2023/01/18 03:20:05;;;;;;;5.65;2.63;;;0.50;99.90;;;;;;5114237;28;20047;-77
2023/01/18 03:25:31;;;;;;;7.15;2.25;;;0.50;99.90;;;;;;5114006;28;20056;-77
2023/01/18 03:33:47;;;;;;;10.00;2.20;;;0.50;99.90;;;;;;5114151;28;20051;-78
2023/01/18 03:36:34;;;;;;;9.63;2.70;;;0.50;99.90;;;;;;5113890;28;20048;-78
2023/01/18 03:39:11;;;;;;;9.27;2.92;;;0.50;99.90;;;;;;5114232;28;20040;-77
2023/01/18 03:41:43;;;;;;;8.07;2.80;;;0.50;99.90;;;;;;5114300;28;20047;-77
2023/01/18 03:44:15;;;;;;;8.02;2.47;;;0.50;99.90;;;;;;5112672;28;20056;-78
2023/01/18 03:46:42;;;;;;;7.63;2.55;;;0.50;99.90;;;;;;5114237;28;20047;-78
2023/01/18 03:49:09;;;;;;;9.07;2.70;;;0.60;99.90;;;;;;5113570;28;20054;-78
2023/01/18 03:51:47;;;;;;;8.48;3.15;;;0.50;99.90;;;;;;5112570;28;20044;-77
2023/01/18 03:54:16;;;;;;;9.43;2.85;;;0.50;99.90;;;;;;5113572;28;20050;-78
2023/01/18 03:56:53;;;;;;;8.85;2.88;;;0.50;99.90;;;;;;5113714;28;20497;-78
2023/01/18 03:59:20;;;;;;;11.38;3.92;;;0.50;99.90;;;;;;5112467;28;20514;-77
2023/01/18 04:01:47;;;;;;;10.05;3.55;;;0.60;99.90;;;;;;5113769;28;20079;-77
2023/01/18 04:04:13;;;;;;;12.23;3.30;;;0.60;99.90;;;;;;5112917;28;20081;-77
2023/01/18 04:06:40;;;;;;;10.60;2.60;;;0.60;99.90;;;;;;5113794;28;20359;-77
2023/01/18 04:09:07;;;;;;;10.65;3.15;;;0.60;99.90;;;;;;5113517;28;20126;-82
2023/01/18 04:11:32;;;;;;;7.32;2.92;;;0.60;99.90;;;;;;5113148;28;20548;-77
2023/01/18 04:13:58;;;;;;;7.33;2.97;;;0.50;99.90;;;;;;5113521;28;20131;-77
2023/01/18 04:16:24;;;;;;;10.77;3.20;;;0.60;99.90;;;;;;5111744;28;20094;-77
2023/01/18 04:18:51;;;;;;;10.63;3.20;;;0.50;99.90;;;;;;5113593;28;20471;-77
2023/01/18 04:21:16;;;;;;;8.40;3.42;;;0.50;99.90;;;;;;5113124;28;20093;-77
2023/01/18 04:23:42;;;;;;;8.73;3.07;;;0.50;99.90;;;;;;5113645;28;20047;-78
2023/01/18 04:26:08;;;;;;;9.97;3.40;;;0.50;99.90;;;;;;5113344;28;20048;-84
2023/01/18 04:28:34;;;;;;;7.53;2.87;;;0.50;99.90;;;;;;5095725;28;20126;-77
2023/01/18 04:30:59;;;;;;;11.77;3.07;;;0.50;99.90;;;;;;5113371;28;20521;-77
2023/01/18 04:33:25;;;;;;;10.57;3.67;;;0.40;99.90;;;;;;5111852;28;20050;-77
2023/01/18 04:35:53;;;;;;;12.77;4.13;;;0.40;99.90;;;;;;5113306;28;20396;-77
2023/01/18 04:38:19;;;;;;;10.13;3.70;;;0.20;99.90;;;;;;5112934;28;20476;-77
2023/01/18 04:40:45;;;;;;;13.27;4.07;;;0.40;99.90;;;;;;5113251;28;20047;-77
2023/01/18 04:43:11;;;;;;;10.87;3.77;;;0.40;99.90;;;;;;5113225;28;20400;-79
2023/01/18 04:45:37;;;;;;;9.27;4.17;;;0.40;99.90;;;;;;5112292;28;20285;-78
2023/01/18 04:48:03;;;;;;;8.80;4.03;;;0.30;99.90;;;;;;5113242;28;20061;-78
2023/01/18 04:50:29;;;;;;;9.68;3.95;;;0.30;99.90;;;;;;5113017;28;20134;-78
2023/01/18 04:52:54;;;;;;;10.40;4.40;;;0.30;99.90;;;;;;5113243;28;20166;-78
2023/01/18 04:55:20;;;;;;;13.93;4.63;;;0.30;99.90;;;;;;5111664;28;20043;-78
2023/01/18 04:57:46;;;;;;;7.97;4.17;;;0.30;99.90;;;;;;5113169;28;20376;-78
2023/01/18 05:00:15;;;;;;;10.07;4.20;;;0.30;99.90;;;;;;5095023;28;20467;-84
2023/01/18 05:02:41;;;;;;;10.05;4.63;;;0.30;99.90;;;;;;5113336;28;20500;-77
2023/01/18 05:05:07;;;;;;;13.33;5.27;;;0.30;99.90;;;;;;5112994;28;20055;-78
2023/01/18 05:07:33;;;;;;;11.55;4.20;;;0.30;99.90;;;;;;5094793;28;20101;-78
2023/01/18 05:10:00;;;;;;;12.20;5.10;;;0.30;99.90;;;;;;5112994;28;20044;-78
2023/01/18 05:12:26;;;;;;;12.25;4.40;;;0.40;99.90;;;;;;5112630;28;20075;-78
2023/01/18 05:14:52;;;;;;;10.05;4.40;;;0.30;99.90;;;;;;5111742;28;20093;-78
2023/01/18 05:17:18;;;;;;;12.47;4.00;;;0.40;99.90;;;;;;5115644;28;20479;-78
2023/01/18 05:19:45;;;;;;;9.27;4.63;;;0.40;99.90;;;;;;5115822;28;20444;-78
2023/01/18 05:22:11;;;;;;;10.65;4.40;;;0.40;99.90;;;;;;5115551;28;20397;-78
2023/01/18 05:24:37;;;;;;;9.73;4.07;;;0.30;99.90;;;;;;5116438;28;20138;-78
2023/01/18 05:27:03;;;;;;;10.53;3.97;;;0.40;99.90;;;;;;5116626;28;20127;-78
2023/01/18 05:29:29;;;;;;;12.07;4.53;;;0.30;99.90;;;;;;5116254;28;20043;-78
2023/01/18 05:31:54;;;;;;;9.67;4.33;;;0.40;99.90;;;;;;5116388;28;20058;-78
2023/01/18 05:34:20;;;;;;;9.67;4.03;;;0.30;99.90;;;;;;5115262;28;20140;-77
2023/01/18 05:36:47;;;;;;;13.80;3.67;;;0.40;99.90;;;;;;5116649;27;20062;-77
2023/01/18 05:39:13;;;;;;;9.70;4.05;;;0.40;99.90;;;;;;5116356;28;20051;-77
2023/01/18 05:41:38;;;;;;;10.80;4.10;;;0.40;99.90;;;;;;5116024;28;20047;-77
2023/01/18 05:44:04;;;;;;;10.57;4.40;;;0.40;99.90;;;;;;5116192;28;20284;-77
2023/01/18 05:46:30;;;;;;;7.60;4.33;;;0.40;99.90;;;;;;5115956;28;20039;-78
2023/01/18 05:48:57;;;;;;;14.03;4.77;;;0.40;99.90;;;;;;5116177;28;20054;-77
2023/01/18 05:51:23;;;;;;;14.90;4.65;;;0.30;99.90;;;;;;5115760;27;20101;-78
2023/01/18 05:53:49;;;;;;;11.57;4.15;;;0.40;99.90;;;;;;5115852;28;20048;-78
2023/01/18 05:56:15;;;;;;;8.80;4.50;;;0.30;99.90;;;;;;5115790;28;20097;-77
2023/01/18 05:58:40;;;;;;;14.57;5.23;;;0.30;99.90;;;;;;5114653;28;20051;-78
2023/01/18 06:01:07;;;;;;;11.17;4.80;;;0.30;99.90;;;;;;5114658;28;20543;-78
2023/01/18 06:03:34;;;;;;;11.40;4.57;;;0.30;99.90;;;;;;5115592;28;20047;-78
2023/01/18 06:06:00;;;;;;;10.00;5.07;;;0.10;99.90;;;;;;5115911;28;20130;-77
2023/01/18 06:08:26;;;;;;;13.02;5.10;;;0.20;99.90;;;;;;5115468;28;20039;-78
2023/01/18 06:10:56;;;;;;;9.80;4.90;;;0.20;99.90;;;;;;5115645;28;20494;-77
2023/01/18 06:13:23;;;;;;;10.52;5.63;;;0.20;99.90;;;;;;5115386;28;20086;-77
2023/01/18 06:15:50;;;;;;;12.73;5.30;;;0.20;99.90;;;;;;5115357;28;20488;-77
2023/01/18 06:18:16;;;;;;;11.73;5.30;;;0.20;99.90;;;;;;5115638;28;20104;-77
2023/01/18 06:20:42;;;;;;;11.47;5.33;;;0.20;99.90;;;;;;5115309;28;20407;-77
2023/01/18 06:23:08;;;;;;;10.10;5.67;;;0.10;99.90;;;;;;5114552;28;20055;-78
2023/01/18 06:25:33;;;;;;;10.17;5.40;;;0.10;99.90;;;;;;5115174;28;20044;-78
2023/01/18 06:27:59;;;;;;;13.20;5.63;;;0.10;99.90;;;;;;5114981;28;20471;-77
2023/01/18 06:30:25;;;;;;;10.70;5.83;;;0.10;99.90;;;;;;5115208;28;20126;-78
2023/01/18 06:32:50;;;;;;;12.53;6.00;;;0.10;99.90;;;;;;5115271;28;20039;-77
2023/01/18 06:35:16;;;;;;;8.43;5.40;;;0.00;99.90;;;;;;5114022;28;20054;-77
2023/01/18 06:37:44;;;;;;;14.63;6.37;;;0.10;99.90;;;;;;5114998;28;20130;-77
2023/01/18 06:40:11;;;;;;;12.10;6.47;;;0.10;99.90;;;;;;5115059;27;20566;-77
2023/01/18 06:42:37;;;;;;;10.00;5.75;;;0.10;99.90;;;;;;5113929;28;20399;-77
2023/01/18 06:45:03;;;;;;;11.15;6.30;;;0.10;99.90;;;;;;5115182;28;20048;-77
2023/01/18 06:47:29;;;;;;;12.80;6.57;;;0.10;99.90;;;;;;5113721;28;20046;-77
2023/01/18 06:49:55;;;;;;;11.40;6.50;;;0.10;99.90;;;;;;5114942;28;20048;-77
2023/01/18 06:52:21;;;;;;;12.47;6.57;;;0.10;99.90;;;;;;5113751;28;20039;-77
2023/01/18 06:54:47;;;;;;;11.47;6.23;;;0.10;99.90;;;;;;5114590;28;20054;-77
2023/01/18 06:57:12;;;;;;;13.93;7.53;;;0.10;99.90;;;;;;5113874;28;20039;-77
2023/01/18 06:59:38;;;;;;;15.40;7.50;;;0.10;99.90;;;;;;5114375;28;20118;-77
2023/01/18 07:02:04;;;;;;;13.43;7.18;;;0.10;99.90;;;;;;5114736;28;20123;-76
2023/01/18 07:04:41;;;;;;;12.57;6.88;;;0.10;99.90;;;;;;5114333;27;20088;-78
2023/01/18 07:07:07;;;;;;;12.60;6.50;;;0.20;99.90;;;;;;5114702;28;20197;-77
2023/01/18 07:09:32;;;;;;;18.03;7.57;;;0.10;99.90;;;;;;5114377;28;20435;-77
2023/01/18 07:11:58;;;;;;;12.70;6.43;;;0.10;99.90;;;;;;5114505;28;20051;-77
2023/01/18 07:14:24;;;;;;;16.43;7.20;;;0.10;99.90;;;;;;5114494;28;20091;-77
2023/01/18 07:16:50;;;;;;;11.23;6.50;;;0.10;99.90;;;;;;5112575;28;20059;-77
2023/01/18 07:19:16;;;;;;;13.20;6.80;;;0.10;99.90;;;;;;5114380;28;20433;-77
2023/01/18 07:21:41;;;;;;;14.10;7.40;;;0.10;99.90;;;;;;5114116;28;20063;-77
2023/01/18 07:24:07;;;;;;;14.87;6.50;;;0.20;99.90;;;;;;5114467;28;20407;-77
2023/01/18 07:26:33;;;;;;;13.07;6.27;;;0.10;99.90;;;;;;5114046;28;20046;-78
2023/01/18 07:28:58;;;;;;;11.17;6.33;;;0.10;99.90;;;;;;5113345;28;20047;-77
2023/01/18 07:31:25;;;;;;;11.97;7.03;;;0.10;99.90;;;;;;5113026;28;20055;-77
2023/01/18 07:33:51;;;;;;;16.17;8.50;;;0.10;99.90;;;;;;5113894;28;20047;-77
2023/01/18 07:36:16;;;;;;;16.80;6.47;;;0.10;99.90;;;;;;5114157;28;20153;-77
2023/01/18 07:38:42;;;;;;;16.97;7.30;;;0.10;99.90;;;;;;5113064;28;20043;-78
2023/01/18 07:41:13;;;;;;;13.18;6.38;;;0.10;99.90;;;;;;5114290;28;20100;-77
2023/01/18 07:43:40;;;;;;;18.50;7.30;;;0.10;99.90;;;;;;5113811;28;20054;-77
2023/01/18 07:46:08;;;;;;;12.13;6.65;;;0.10;99.90;;;;;;5112828;28;20047;-77
2023/01/18 07:48:34;;;;;;;12.98;7.70;;;0.10;99.90;;;;;;5113605;28;20051;-78
2023/01/18 07:51:02;;;;;;;14.15;7.38;;;0.10;99.90;;;;;;5112734;28;20044;-77
2023/01/18 07:53:29;;;;;;;18.05;7.47;;;0.10;99.90;;;;;;5112791;28;20075;-78
2023/01/18 07:55:59;;;;;;;12.43;7.40;;;0.10;99.90;;;;;;5113506;28;20146;-78
2023/01/18 07:58:25;;;;;;;14.65;7.60;;;0.10;99.90;;;;;;5113822;28;20058;-77
2023/01/18 08:00:51;;;;;;;10.90;6.90;;;0.10;99.90;;;;;;5112451;28;20051;-78
2023/01/18 08:03:18;;;;;;;15.30;8.10;;;0.20;99.90;;;;;;5095124;28;20096;-78
2023/01/18 08:05:44;;;;;;;12.27;6.90;;;0.20;99.90;;;;;;5113312;28;20499;-78
2023/01/18 08:08:12;;;;;;;13.75;7.80;;;0.20;99.90;;;;;;5113594;28;20035;-77
2023/01/18 08:10:38;;;;;;;15.40;7.63;;;0.20;99.90;;;;;;5111975;28;20043;-77
2023/01/18 08:13:05;;;;;;;15.55;7.43;;;0.10;99.90;;;;;;5111635;28;20059;-75
2023/01/18 08:15:31;;;;;;;13.52;7.70;;;0.10;99.90;;;;;;5112969;28;20044;-77
2023/01/18 08:18:04;;;;;;;13.45;7.32;;;0.20;99.90;;;;;;5112862;28;20464;-77
2023/01/18 08:20:30;;;;;;;15.00;7.72;;;0.20;99.90;;;;;;5113374;28;20044;-77
2023/01/18 08:22:57;;;;;;;13.73;7.43;;;0.20;99.90;;;;;;5113200;28;20035;-74
2023/01/18 08:25:28;;;;;;;11.52;7.30;;;0.10;99.90;;;;;;5113608;28;20085;-74
2023/01/18 08:27:58;;;;;;;13.10;8.00;;;0.20;99.90;;;;;;5113218;28;20530;-74
2023/01/18 08:30:27;;;;;;;13.48;7.20;;;0.20;99.90;;;;;;5113190;28;20515;-74
2023/01/18 08:32:57;;;;;;;14.43;7.97;;;0.30;99.90;;;;;;5112961;28;20050;-73
2023/01/18 08:35:25;;;;;;;15.20;7.93;;;0.30;99.90;;;;;;5113087;28;20082;-73
2023/01/18 08:37:51;;;;;;;16.83;8.68;;;0.30;99.90;;;;;;5113000;28;20044;-73
2023/01/18 08:40:18;;;;;;;14.07;7.30;;;0.40;99.90;;;;;;5113226;28;20126;-73
2023/01/18 08:42:45;;;;;;;11.60;7.10;;;0.40;99.90;;;;;;5113047;28;20100;-74
2023/01/18 08:45:11;;;;;;;10.70;7.35;;;0.40;99.90;;;;;;5113202;28;20052;-73
2023/01/18 08:47:37;;;;;;;13.02;7.45;;;0.40;99.90;;;;;;5113187;28;20051;-73
2023/01/18 08:50:03;;;;;;;14.80;7.40;;;0.40;99.90;;;;;;5113755;28;20104;-74
2023/01/18 08:52:29;;;;;;;11.75;6.72;;;0.40;99.90;;;;;;5117214;27;20092;-74
2023/01/18 08:54:54;;;;;;;15.40;7.03;;;0.40;99.90;;;;;;5116982;28;20492;-74
2023/01/18 08:57:20;;;;;;;14.07;6.80;;;0.50;99.90;;;;;;5116191;28;20549;-74
2023/01/18 08:59:45;;;;;;;13.40;7.00;;;0.40;99.90;;;;;;5116869;28;20047;-75
2023/01/18 09:02:11;;;;;;;16.10;7.53;;;0.40;99.90;;;;;;5117445;28;20084;-74
2023/01/18 09:04:37;;;;;;;15.57;7.75;;;0.50;99.90;;;;;;5117066;28;20132;-74
2023/01/18 09:07:03;;;;;;;12.70;7.67;;;0.50;99.90;;;;;;5115797;28;20098;-74
2023/01/18 09:09:29;;;;;;;12.07;6.53;;;0.50;99.90;;;;;;5116010;28;20047;-74
2023/01/18 09:11:56;;;;;;;13.47;7.27;;;0.50;99.90;;;;;;5115552;28;20093;-74
2023/01/18 09:14:21;;;;;;;12.63;6.97;;;0.50;99.90;;;;;;5117148;28;20048;-75
2023/01/18 09:16:47;;;;;;;11.40;6.57;;;0.60;99.90;;;;;;5116470;28;20125;-75
2023/01/18 09:19:13;;;;;;;12.37;6.80;;;0.60;99.90;;;;;;5115859;28;20048;-74
2023/01/18 09:21:39;;;;;;;14.50;7.27;;;0.60;99.90;;;;;;5116900;28;20556;-74
2023/01/18 09:24:05;;;;;;;11.03;6.53;;;0.60;99.90;;;;;;5116392;28;20044;-74
2023/01/18 09:26:31;;;;;;;15.13;6.85;;;0.70;99.90;;;;;;5115348;28;20050;-75
2023/01/18 09:28:57;;;;;;;12.40;6.03;;;0.80;99.90;;;;;;5098489;28;20131;-75
2023/01/18 09:31:25;;;;;;;13.43;6.03;;;0.80;99.90;;;;;;5116591;28;20052;-73
2023/01/18 09:33:50;;;;;;;12.43;6.40;;;0.80;99.90;;;;;;5116265;28;20428;-74
2023/01/18 09:36:17;;;;;;;11.03;5.97;;;0.80;99.90;;;;;;5115698;28;20044;-76
2023/01/18 09:38:44;;;;;;;12.98;6.40;;;0.80;99.90;;;;;;5115100;28;20420;-76
2023/01/18 09:41:31;;;;;;;11.23;5.93;;;0.90;99.90;;;;;;5116099;28;20047;-78
2023/01/18 09:44:03;;;;;;;11.27;6.28;;;1.00;99.90;;;;;;5113072;28;20066;-76
2023/01/18 09:46:34;;;;;;;15.18;6.43;;;1.00;99.90;;;;;;5116110;28;20407;-77
2023/01/18 09:49:03;;;;;;;14.80;6.18;;;1.00;99.90;;;;;;5113103;28;20472;-77
2023/01/18 09:52:00;;;;;;;14.30;7.30;;;1.00;99.90;;;;;;5115855;28;20118;-77
2023/01/18 09:54:38;;;;;;;12.30;6.50;;;1.10;99.90;;;;;;5106282;28;20055;-77
2023/01/18 09:57:15;;;;;;;11.23;6.05;;;1.20;99.90;;;;;;5114124;28;20047;-74
2023/01/18 09:59:56;;;;;;;11.60;6.07;;;1.10;99.90;;;;;;5114506;28;20415;-72
2023/01/18 10:02:27;;;;;;;12.63;5.90;;;1.20;99.90;;;;;;5114215;28;20079;-76
2023/01/18 10:04:58;;;;;;;14.20;6.45;;;1.20;99.90;;;;;;5115919;28;20051;-77
2023/01/18 10:07:27;;;;;;;10.82;6.20;;;1.30;99.90;;;;;;5115966;28;20047;-78
2023/01/18 10:09:56;;;;;;;12.43;7.32;;;1.30;99.90;;;;;;5115853;28;20130;-79
2023/01/18 10:12:25;;;;;;;10.73;6.15;;;1.40;99.90;;;;;;5115754;28;20131;-80
2023/01/18 10:15:00;;;;;;;9.77;6.20;;;1.40;99.90;;;;;;5115096;27;20496;-81
2023/01/18 10:17:34;;;;;;;15.38;6.65;;;1.40;99.90;;;;;;5115474;28;20082;-81
2023/01/18 10:20:04;;;;;;;11.27;6.28;;;1.40;99.90;;;;;;5115539;28;20393;-76
2023/01/18 10:22:35;;;;;;;11.18;5.63;;;1.60;99.90;;;;;;5115696;28;20518;-79
2023/01/18 10:25:15;;;;;;;12.40;6.70;;;1.50;99.90;;;;;;5114373;28;20135;-82
2023/01/18 10:27:41;;;;;;;10.32;6.22;;;1.60;99.90;;;;;;5115507;28;20104;-79
2023/01/18 10:30:19;;;;;;;11.10;6.27;;;1.60;99.90;;;;;;5114529;28;20056;-82
2023/01/18 10:32:53;;;;;;;16.02;6.80;;;1.60;99.90;;;;;;5114462;27;20503;-81
2023/01/18 10:35:35;;;;;;;11.98;7.10;;;1.70;99.90;;;;;;5115061;28;20445;-81
2023/01/18 10:38:10;;;;;;;11.55;6.68;;;1.70;99.90;;;;;;5114943;28;20043;-82
2023/01/18 10:40:38;;;;;;;13.27;7.00;;;1.70;99.90;;;;;;5115464;28;20050;-79
2023/01/18 10:43:11;;;;;;;15.82;7.07;;;1.70;99.90;;;;;;5114972;28;20381;-78
2023/01/18 10:45:37;;;;;;;14.45;6.78;;;1.80;99.90;;;;;;5115220;28;20484;-80
2023/01/18 10:48:27;;;;;;;14.00;7.30;;;1.90;99.90;;;;;;5113852;28;20043;-81
2023/01/18 10:51:02;;;;;;;11.48;6.85;;;1.90;99.90;;;;;;5114422;28;20450;-81
2023/01/18 10:53:36;;;;;;;13.55;7.07;;;1.90;99.90;;;;;;5114997;28;20040;-79
2023/01/18 10:56:23;;;;;;;11.95;6.63;;;2.00;99.90;;;;;;5113785;28;20047;-79
2023/01/18 10:58:59;;;;;;;13.55;7.32;;;2.00;99.90;;;;;;5114790;28;20100;-81
2023/01/18 11:01:28;;;;;;;12.95;6.15;;;2.10;99.90;;;;;;5115022;28;20040;-79
2023/01/18 11:04:24;;;;;;;13.63;6.07;;;2.10;99.90;;;;;;5114504;28;20438;-84
2023/01/18 11:07:02;;;;;;;11.05;5.78;;;2.20;99.90;;;;;;5113111;28;20467;-78
2023/01/18 11:09:58;;;;;;;10.73;5.93;;;2.20;99.90;;;;;;5114773;28;20051;-79
2023/01/18 11:12:41;;;;;;;9.93;5.70;;;2.20;99.90;;;;;;5114831;28;20073;-80
2023/01/18 11:15:13;;;;;;;13.88;5.97;;;2.20;99.90;;;;;;5112823;28;20131;-81
2023/01/18 11:17:55;;;;;;;10.77;5.78;;;2.30;99.90;;;;;;5114756;28;20139;-79
2023/01/18 11:20:28;;;;;;;12.27;5.25;;;2.30;99.90;;;;;;5114492;28;20077;-84
2023/01/18 11:23:04;;;;;;;9.18;4.82;;;2.30;99.90;;;;;;5114586;28;20040;-87
2023/01/18 11:25:45;;;;;;;10.88;5.90;;;2.40;99.90;;;;;;5113519;28;20051;-78
2023/01/18 11:28:16;;;;;;;10.75;5.07;;;2.40;99.90;;;;;;5112954;28;20047;-78
2023/01/18 11:31:05;;;;;;;10.57;4.93;;;2.40;99.90;;;;;;5114341;28;20047;-77
2023/01/18 11:33:31;;;;;;;11.75;5.15;;;2.40;99.90;;;;;;5114509;28;20100;-76
2023/01/18 11:35:59;;;;;;;11.13;5.10;;;2.40;99.90;;;;;;5113244;28;20060;-78
2023/01/18 11:38:31;;;;;;;11.55;5.20;;;2.40;99.90;;;;;;5114553;28;20051;-75
2023/01/18 11:41:14;;;;;;;10.32;5.57;;;2.40;99.90;;;;;;5114183;28;20087;-75
2023/01/18 11:43:52;;;;;;;9.63;5.22;;;2.50;99.90;;;;;;5114091;28;20048;-75
2023/01/18 11:46:48;;;;;;;12.90;5.88;;;2.50;99.90;;;;;;5113792;28;20055;-75
2023/01/18 11:49:31;;;;;;;;;;;2.50;99.90;;;;;;5114162;28;20047;-74
2023/01/18 11:52:01;;;;;;;10.95;5.50;;;2.60;99.90;;;;;;5113880;28;19923;-75
2023/01/18 11:54:49;;;;;;;10.38;5.45;;;2.70;99.90;;;;;;5112566;28;20051;-75
2023/01/18 11:57:15;;;;;;;8.07;4.93;;;2.70;99.90;;;;;;5113659;28;20122;-75
2023/01/18 11:59:44;;;;;;;15.23;5.20;;;2.70;99.90;;;;;;5114152;28;20527;-75
2023/01/18 12:02:37;;;;;;;12.45;5.25;;;2.70;99.90;;;;;;5113484;28;20048;-75
2023/01/18 12:05:28;;;;;;;11.85;5.50;;;2.70;99.90;;;;;;5111780;28;20082;-76
2023/01/18 12:07:59;;;;;;;11.93;5.15;;;2.70;99.90;;;;;;5113666;28;20050;-76
2023/01/18 12:10:32;;;;;;;13.63;6.00;;;2.70;99.90;;;;;;5112438;28;20454;-76
2023/01/18 12:13:19;;;;;;;9.50;4.57;;;2.70;99.90;;;;;;5110462;28;20050;-74
2023/01/18 12:15:57;;;;;;;9.07;5.15;;;2.70;99.90;;;;;;5106195;28;20047;-83
2023/01/18 12:19:07;;;;;;;9.90;5.15;;;2.80;99.90;;;;;;5110058;28;20059;-76
2023/01/18 12:21:44;;;;;;;9.60;5.20;;;2.90;99.90;;;;;;5098435;28;20071;-85
2023/01/18 12:24:33;;;;;;;8.95;4.70;;;3.00;99.90;;;;;;5109631;28;20391;-76
2023/01/18 12:27:22;;;;;;;11.73;5.40;;;3.00;99.90;;;;;;5106033;28;20077;-76
2023/01/18 12:30:29;;;;;;;9.77;5.45;;;3.10;99.90;;;;;;5112299;28;20059;-73
2023/01/18 12:33:17;;;;;;;10.32;5.10;;;3.10;99.90;;;;;;5099889;28;20054;-74
2023/01/18 12:35:58;;;;;;;10.82;4.65;;;3.10;99.90;;;;;;5110629;28;20499;-77
2023/01/18 12:38:34;;;;;;;8.85;4.30;;;3.20;99.90;;;;;;5105996;28;20852;-74
2023/01/18 12:41:35;;;;;;;11.38;4.22;;;3.30;99.90;;;;;;5112246;28;20051;-73
2023/01/18 12:44:23;;;;;;;9.75;4.25;;;3.30;99.90;;;;;;5099107;28;20059;-73
2023/01/18 12:46:57;;;;;;;7.93;3.63;;;3.30;99.90;;;;;;5110400;28;20051;-74
2023/01/18 12:49:25;;;;;;;11.80;5.07;;;3.40;99.90;;;;;;5106788;28;20044;-73
2023/01/18 12:51:59;;;;;;;9.32;4.20;;;3.40;99.90;;;;;;5111695;28;20395;-74
2023/01/18 12:54:28;;;;;;;9.90;4.15;;;3.40;99.90;;;;;;5104063;28;20175;-74
2023/01/18 12:56:56;;;;;;;9.80;4.63;;;3.40;99.90;;;;;;5112036;28;20043;-71
2023/01/18 12:59:33;;;;;;;8.30;4.22;;;3.40;99.90;;;;;;5106024;28;20051;-80
2023/01/18 13:02:04;;;;;;;11.07;4.53;;;3.50;99.90;;;;;;5111575;28;20511;-72
2023/01/18 13:04:43;;;;;;;13.02;4.75;;;3.50;99.90;;;;;;5109750;28;20055;-73
2023/01/18 13:07:14;;;;;;;7.85;4.38;;;3.50;99.90;;;;;;5111890;28;20043;-73
2023/01/18 13:09:47;;;;;;;11.77;4.78;;;3.50;99.90;;;;;;5111745;28;20051;-77
2023/01/18 13:12:13;;;;;;;9.30;4.82;;;3.50;99.90;;;;;;5111676;28;20043;-73
2023/01/18 13:14:48;;;;;;;9.07;4.70;;;3.60;99.90;;;;;;5109292;28;20446;-72
2023/01/18 13:17:35;;;;;;;12.82;4.45;;;3.50;99.90;;;;;;5110916;28;20346;-73
2023/01/18 13:20:03;;;;;;;10.38;4.10;;;3.60;99.90;;;;;;5111909;28;20506;-73
2023/01/18 13:22:37;;;;;;;12.27;5.65;;;3.60;99.90;;;;;;5111329;28;20499;-72
2023/01/18 13:25:07;;;;;;;18.60;9.40;;;3.60;99.90;;;;;;5110297;28;20101;-72
2023/01/18 13:27:34;;;;;;;15.75;8.00;;;3.60;99.90;;;;;;5110068;28;20051;-72
2023/01/18 13:30:27;;;;;;;14.88;8.20;;;3.50;99.90;;;;;;5111808;28;20142;-72
2023/01/18 13:32:54;;;;;;;15.65;7.47;;;3.50;99.90;;;;;;5109947;28;20128;-73
2023/01/18 13:35:30;;;;;;;10.80;5.05;;;3.50;99.90;;;;;;5109907;28;20444;-73
2023/01/18 13:37:58;;;;;;;12.13;4.47;;;3.60;99.90;;;;;;5113214;28;20043;-78
2023/01/18 13:40:50;;;;;;;15.48;7.47;;;3.50;99.90;;;;;;5113998;28;20079;-75
2023/01/18 13:43:34;;;;;;;12.98;5.63;;;3.60;99.90;;;;;;5114490;28;20055;-74